Hinsdale, Montana
Current Conditions -  °F | °C
As of 12:53 PM on Saturday 25 Oct 2014 (Local Time) from KGGW Reporting Station
Clear Clear  
Wind Chill: 61°   Ceiling: Unl
Heat Index: 61°   Visibility: 10mi
Dew Point: 33°   Wind: 15mph
Humidity: 35%   Direction: 110°ESE
Pressure: 29.96"   Gusts: NA
Location:  48.39°N, 107.09°W
Report Text: KGGW 251853Z AUTO 11013KT 10SM CLR 16/01 A2996 RMK AO2 SLP152 T01610006 $
Loading
Personal Weather Stations






























Interactive Weather Map
Tropical Storm Tracking
New forecast layout! Learn more

10-Day Weather Forecast

Advertisements
Track Severe Weather on mobile